SKSM/SMR METAR and TAF weather

Enter ICAO airport designator
Station Type Date Time Source
SKSM METAR 2021/05/17 22:00 UTC NOAA

SKSM 172200Z 34010KT 310V010 9999 FEW020 BKN200 31/26 Q1009 RMK A2980


Station Type Date Time Source
SKSM Decoded METAR 2021/05/17 22:00 UTC NOAA

Santa Marta / Simon Bolivar, Colombia (SKSM) 11-08N 074-14W 14M
May 17, 2021 - 06:00 PM EDT / 2021.05.17 2200 UTC
Wind: from the NNW (340 degrees) at 12 MPH (10 KT) (direction variable):0
Visibility: greater than 7 mile(s):0
Sky conditions: mostly cloudy
Temperature: 87 F (31 C)
Heat index: 99.7 F (37.6 C):1
Dew Point: 78 F (26 C)
Relative Humidity: 74%
Pressure (altimeter): 29.80 in. Hg (1009 hPa)
ob: SKSM 172200Z 34010KT 310V010 9999 FEW020 BKN200 31/26 Q1009 RMK A2980
cycle: 22

Station Type Date Time Source
SKSM TAF UTC NOAA

Error!

Example: see airport list